createdAt,value
2023-04-02T00:00:32.030Z,97598.56
2023-04-02T00:04:16.242Z,97597.17
2023-04-02T00:07:33.447Z,97602.13
2023-04-02T00:10:37.988Z,97604.07
2023-04-02T00:13:40.939Z,97605.64
2023-04-02T00:16:27.386Z,97605.38
2023-04-02T00:19:30.630Z,97611.33
2023-04-02T00:22:29.968Z,97615.39
2023-04-02T00:25:27.954Z,97615.09
2023-04-02T00:28:24.468Z,97613.49
2023-04-02T00:31:11.450Z,97614.30
2023-04-02T00:34:09.199Z,97612.88
2023-04-02T00:37:01.902Z,97615.72
2023-04-02T00:40:06.243Z,97614.78
2023-04-02T00:43:04.323Z,97614.47
2023-04-02T00:46:03.921Z,97618.64
2023-04-02T00:49:03.644Z,97617.84
2023-04-02T00:52:01.605Z,97617.54
2023-04-02T00:55:06.042Z,97623.09
2023-04-02T00:58:02.149Z,97623.38
2023-04-02T01:00:56.713Z,97621.58
2023-04-02T01:04:00.292Z,97626.21
2023-04-02T01:06:55.076Z,97625.81
2023-04-02T01:10:14.058Z,97631.59
2023-04-02T01:13:21.502Z,97628.80
2023-04-02T01:16:42.314Z,97633.77
2023-04-02T01:20:22.577Z,97636.77
2023-04-02T01:23:23.128Z,97635.37
2023-04-02T01:26:27.913Z,97638.02
2023-04-02T01:29:25.083Z,97633.23
2023-04-02T01:32:24.146Z,97637.40
2023-04-02T01:35:18.255Z,97637.05
2023-04-02T01:38:18.497Z,97638.33
2023-04-02T01:41:22.210Z,97644.61
2023-04-02T01:44:20.562Z,97647.90
2023-04-02T01:47:18.363Z,97644.61
2023-04-02T01:50:26.175Z,97646.98
2023-04-02T01:53:22.029Z,97645.73
2023-04-02T01:56:15.969Z,97642.98
2023-04-02T01:59:13.146Z,97642.69
2023-04-02T02:02:14.695Z,97643.37
2023-04-02T02:05:13.976Z,97648.14
2023-04-02T02:08:11.846Z,97651.10
2023-04-02T02:11:07.759Z,97647.50
2023-04-02T02:14:06.915Z,97647.51
2023-04-02T02:17:04.242Z,97648.94
2023-04-02T02:20:01.679Z,97655.99
2023-04-02T02:22:55.777Z,97655.89
2023-04-02T02:25:50.457Z,97660.88
2023-04-02T02:28:47.173Z,97663.49
2023-04-02T02:31:43.050Z,97665.51
2023-04-02T02:34:44.107Z,97668.08
2023-04-02T02:37:44.653Z,97670.23
2023-04-02T02:40:52.830Z,97670.83
2023-04-02T02:44:12.650Z,97671.48
2023-04-02T02:47:29.304Z,97675.29
2023-04-02T02:50:28.087Z,97676.85
2023-04-02T02:53:25.439Z,97676.00
2023-04-02T02:56:20.788Z,97677.00
2023-04-02T02:59:21.053Z,97679.96
2023-04-02T03:02:16.077Z,97681.27
2023-04-02T03:05:02.789Z,97681.91
2023-04-02T03:07:39.630Z,97682.86
2023-04-02T03:10:45.397Z,97683.56
2023-04-02T03:13:42.012Z,97689.69
2023-04-02T03:16:43.423Z,97691.12
2023-04-02T03:19:44.914Z,97692.93
2023-04-02T03:22:45.072Z,97697.52
2023-04-02T03:25:44.982Z,97700.78
2023-04-02T03:28:42.819Z,97702.71
2023-04-02T03:31:41.224Z,97707.98
2023-04-02T03:34:40.501Z,97707.71
2023-04-02T03:37:41.222Z,97712.95
2023-04-02T03:40:40.926Z,97712.08
2023-04-02T03:43:41.138Z,97714.92
2023-04-02T03:46:39.397Z,97717.88
2023-04-02T03:49:42.963Z,97715.55
2023-04-02T03:52:40.214Z,97716.67
2023-04-02T03:55:37.970Z,97720.17
2023-04-02T03:58:40.686Z,97726.59
2023-04-02T04:01:43.913Z,97729.71
2023-04-02T04:04:42.579Z,97732.59
2023-04-02T04:07:41.368Z,97737.83
2023-04-02T04:10:36.774Z,97739.69
2023-04-02T04:13:27.371Z,97742.23
2023-04-02T04:16:26.476Z,97737.19
2023-04-02T04:19:30.068Z,97741.33
2023-04-02T04:22:30.300Z,97747.67
2023-04-02T04:25:30.261Z,97758.65
2023-04-02T04:28:30.692Z,97760.05
2023-04-02T04:31:49.491Z,97759.27
2023-04-02T04:34:51.573Z,97762.16
2023-04-02T04:37:53.644Z,97766.00
2023-04-02T04:40:53.764Z,97770.20
2023-04-02T04:43:53.025Z,97774.46
2023-04-02T04:46:50.468Z,97779.89
2023-04-02T04:49:48.687Z,97782.45
2023-04-02T04:52:45.448Z,97786.53
2023-04-02T04:55:44.959Z,97789.30
2023-04-02T04:58:51.687Z,97791.94
2023-04-02T05:01:53.601Z,97797.89
2023-04-02T05:04:53.450Z,97799.45
2023-04-02T05:07:53.225Z,97798.90
2023-04-02T05:10:52.530Z,97802.94
2023-04-02T05:13:54.524Z,97805.46
2023-04-02T05:16:54.169Z,97812.44
2023-04-02T05:19:53.221Z,97816.70
2023-04-02T05:22:52.131Z,97821.95
2023-04-02T05:26:02.893Z,97826.04
2023-04-02T05:29:02.661Z,97829.42
2023-04-02T05:32:03.525Z,97830.73
2023-04-02T05:34:58.239Z,97838.08
2023-04-02T05:37:52.461Z,97843.55
2023-04-02T05:40:51.702Z,97850.05
2023-04-02T05:43:29.116Z,97856.02
2023-04-02T05:46:29.210Z,97859.87
2023-04-02T05:49:30.002Z,97869.23
2023-04-02T05:52:29.114Z,97870.19
2023-04-02T05:55:58.610Z,97875.98
2023-04-02T05:58:59.961Z,97877.34
2023-04-02T06:02:18.658Z,97883.84
2023-04-02T06:05:41.026Z,97891.50
2023-04-02T06:08:43.209Z,97891.73
2023-04-02T06:11:42.388Z,97896.34
2023-04-02T06:14:36.265Z,97899.77
2023-04-02T06:17:30.961Z,97907.54
2023-04-02T06:20:25.166Z,97910.75
2023-04-02T06:23:25.862Z,97919.14
2023-04-02T06:26:44.666Z,97929.33
2023-04-02T06:29:43.386Z,97932.88
2023-04-02T06:32:37.612Z,97940.98
2023-04-02T06:35:31.986Z,97947.33
2023-04-02T06:38:30.719Z,97956.44
2023-04-02T06:41:26.757Z,97959.70
2023-04-02T06:44:29.029Z,97965.11
2023-04-02T06:47:31.437Z,97976.20
2023-04-02T06:50:34.297Z,97979.92
2023-04-02T06:53:38.870Z,97987.56
2023-04-02T06:56:44.923Z,97992.34
2023-04-02T06:59:39.182Z,97994.93
2023-04-02T07:02:41.179Z,97995.64
2023-04-02T07:05:35.176Z,98002.48
2023-04-02T07:08:12.364Z,98008.10
2023-04-02T07:11:06.390Z,98018.12
2023-04-02T07:14:00.543Z,98016.92
2023-04-02T07:16:54.644Z,98022.86
2023-04-02T07:19:50.435Z,98029.59
2023-04-02T07:22:44.552Z,98039.67
2023-04-02T07:25:38.957Z,98041.19
2023-04-02T07:28:33.073Z,98045.63
2023-04-02T07:31:49.209Z,98053.52
2023-04-02T07:34:45.058Z,98060.61
2023-04-02T07:37:39.605Z,98064.40
2023-04-02T07:40:34.192Z,98073.30
2023-04-02T07:43:28.130Z,98081.23
2023-04-02T07:46:22.197Z,98082.23
2023-04-02T07:49:16.198Z,98088.31
2023-04-02T07:52:10.255Z,98098.30
2023-04-02T07:55:04.412Z,98104.34
2023-04-02T07:58:00.352Z,98106.23
2023-04-02T08:00:54.158Z,98111.45
2023-04-02T08:03:48.334Z,98119.71
2023-04-02T08:06:42.202Z,98128.36
2023-04-02T08:09:36.186Z,98135.38
2023-04-02T08:12:29.818Z,98143.41
2023-04-02T08:15:16.585Z,98149.05
2023-04-02T08:18:10.908Z,98155.95
2023-04-02T08:21:07.820Z,98161.46
2023-04-02T08:24:01.421Z,98159.35
2023-04-02T08:26:55.090Z,98165.06
2023-04-02T08:29:48.724Z,98173.23
2023-04-02T08:32:42.608Z,98175.63
2023-04-02T08:35:37.066Z,98179.66
2023-04-02T08:38:31.124Z,98188.72
2023-04-02T08:41:28.674Z,98192.30
2023-04-02T08:44:47.570Z,98193.56
2023-04-02T08:47:47.329Z,98200.56
2023-04-02T08:50:44.493Z,98203.96
2023-04-02T08:53:40.016Z,98209.56
2023-04-02T08:56:58.002Z,98213.61
2023-04-02T09:00:24.324Z,98215.02
2023-04-02T09:03:21.272Z,98217.84
2023-04-02T09:06:20.489Z,98220.91
2023-04-02T09:09:16.705Z,98222.17
2023-04-02T09:12:19.760Z,98222.85
2023-04-02T09:15:29.992Z,98226.80
2023-04-02T09:18:24.251Z,98227.52
2023-04-02T09:21:43.952Z,98233.76
2023-04-02T09:24:38.725Z,98246.36
2023-04-02T09:27:36.003Z,98247.83
2023-04-02T09:30:44.621Z,98251.85
2023-04-02T09:33:54.816Z,98255.67
2023-04-02T09:36:49.156Z,98257.96
2023-04-02T09:40:12.036Z,98266.34
2023-04-02T09:43:18.979Z,98271.34
2023-04-02T09:46:29.852Z,98276.00
2023-04-02T09:49:37.147Z,98283.27
2023-04-02T09:52:43.022Z,98286.41
2023-04-02T09:55:47.562Z,98290.25
2023-04-02T09:59:32.018Z,98293.89
2023-04-02T10:02:37.116Z,98298.11
2023-04-02T10:06:48.370Z,98302.81
2023-04-02T10:09:38.024Z,98306.83
2023-04-02T10:12:51.477Z,98310.22
2023-04-02T10:16:01.974Z,98315.37
2023-04-02T10:19:00.046Z,98322.30
2023-04-02T10:21:55.039Z,98330.73
2023-04-02T10:24:52.493Z,98337.33
2023-04-02T10:27:53.314Z,98340.41
2023-04-02T10:31:02.078Z,98343.58
2023-04-02T10:34:04.047Z,98340.82
2023-04-02T10:37:09.350Z,98345.67
2023-04-02T10:40:11.275Z,98350.47
2023-04-02T10:43:38.838Z,98353.94
2023-04-02T10:46:44.311Z,98354.09
2023-04-02T10:49:48.418Z,98360.58
2023-04-02T10:53:11.465Z,98360.24
2023-04-02T10:56:11.226Z,98367.46
2023-04-02T10:59:14.607Z,98369.35
2023-04-02T11:02:25.411Z,98373.73
2023-04-02T11:05:08.785Z,98375.71
2023-04-02T11:08:11.810Z,98379.94
2023-04-02T11:11:11.607Z,98385.33
2023-04-02T11:14:12.843Z,98386.80
2023-04-02T11:17:06.647Z,98391.30
2023-04-02T11:20:37.344Z,98401.10
2023-04-02T11:23:36.214Z,98399.05
2023-04-02T11:26:47.462Z,98404.14
2023-04-02T11:29:44.781Z,98410.04
2023-04-02T11:32:43.638Z,98419.05
2023-04-02T11:35:44.623Z,98427.70
2023-04-02T11:39:01.757Z,98428.77
2023-04-02T11:42:29.787Z,98433.52
2023-04-02T11:45:58.473Z,98435.36
2023-04-02T11:48:55.052Z,98435.85
2023-04-02T11:52:09.122Z,98435.75
2023-04-02T11:55:27.441Z,98441.55
2023-04-02T11:58:52.047Z,98445.29
2023-04-02T12:02:10.572Z,98447.90
2023-04-02T12:05:22.964Z,98446.30
2023-04-02T12:08:30.515Z,98445.48
2023-04-02T12:11:37.208Z,98452.67
2023-04-02T12:14:52.729Z,98456.73
2023-04-02T12:17:46.509Z,98458.19
2023-04-02T12:20:42.866Z,98460.39
2023-04-02T12:23:39.126Z,98465.84
2023-04-02T12:26:38.387Z,98468.35
2023-04-02T12:29:33.211Z,98474.04
2023-04-02T12:32:31.852Z,98472.90
2023-04-02T12:35:37.822Z,98474.48
2023-04-02T12:38:43.379Z,98475.78
2023-04-02T12:41:40.098Z,98478.96
2023-04-02T12:44:34.450Z,98481.16
2023-04-02T12:47:29.310Z,98483.52
2023-04-02T12:50:25.094Z,98487.23
2023-04-02T12:53:26.257Z,98487.73
2023-04-02T12:56:03.896Z,98492.14
2023-04-02T12:59:00.653Z,98496.34
2023-04-02T13:02:02.573Z,98501.85
2023-04-02T13:04:56.379Z,98501.95
2023-04-02T13:07:51.195Z,98509.34
2023-04-02T13:10:46.873Z,98510.33
2023-04-02T13:13:44.461Z,98519.23
2023-04-02T13:16:42.786Z,98518.45
2023-04-02T13:19:37.950Z,98524.09
2023-04-02T13:22:38.411Z,98527.40
2023-04-02T13:25:37.949Z,98532.80
2023-04-02T13:28:35.597Z,98531.34
2023-04-02T13:31:17.879Z,98540.06
2023-04-02T13:34:12.126Z,98540.80
2023-04-02T13:37:07.111Z,98543.27
2023-04-02T13:39:50.455Z,98548.02
2023-04-02T13:42:45.074Z,98551.48
2023-04-02T13:45:41.968Z,98552.83
2023-04-02T13:48:39.892Z,98554.17
2023-04-02T13:51:40.123Z,98557.04
2023-04-02T13:54:40.109Z,98558.81
2023-04-02T13:57:22.005Z,98561.50
2023-04-02T14:00:18.341Z,98562.56
2023-04-02T14:03:15.379Z,98562.46
2023-04-02T14:06:20.678Z,98564.61
2023-04-02T14:09:28.586Z,98569.31
2023-04-02T14:12:30.215Z,98569.55
2023-04-02T14:15:40.642Z,98578.55
2023-04-02T14:18:55.384Z,98580.05
2023-04-02T14:22:26.333Z,98591.30
2023-04-02T14:25:19.348Z,98592.48
2023-04-02T14:28:28.245Z,98591.65
2023-04-02T14:31:35.046Z,98595.30
2023-04-02T14:34:40.052Z,98599.59
2023-04-02T14:37:47.460Z,98598.95
2023-04-02T14:40:38.445Z,98605.93
2023-04-02T14:43:43.002Z,98606.73
2023-04-02T14:46:39.803Z,98607.66
2023-04-02T14:49:41.877Z,98614.11
2023-04-02T14:52:40.768Z,98617.66
2023-04-02T14:55:43.876Z,98619.13
2023-04-02T14:58:43.591Z,98622.56
2023-04-02T15:01:42.553Z,98625.54
2023-04-02T15:04:42.099Z,98629.41
2023-04-02T15:07:44.635Z,98631.10
2023-04-02T15:10:46.380Z,98633.62
2023-04-02T15:13:51.184Z,98642.65
2023-04-02T15:16:50.661Z,98644.15
2023-04-02T15:19:58.551Z,98644.92
2023-04-02T15:23:09.427Z,98650.62
2023-04-02T15:26:14.603Z,98649.98
2023-04-02T15:29:28.763Z,98655.45
2023-04-02T15:32:38.242Z,98661.30
2023-04-02T15:35:38.071Z,98665.85
2023-04-02T15:38:39.249Z,98667.92
2023-04-02T15:41:27.984Z,98672.98
2023-04-02T15:44:28.732Z,98672.14
2023-04-02T15:47:22.996Z,98677.47
2023-04-02T15:50:37.358Z,98683.88
2023-04-02T15:53:37.254Z,98693.66
2023-04-02T15:56:51.599Z,98694.52
2023-04-02T16:00:13.024Z,98699.14
2023-04-02T16:03:51.258Z,98698.02
2023-04-02T16:07:11.656Z,98698.18
2023-04-02T16:10:04.189Z,98701.23
2023-04-02T16:13:01.145Z,98703.45
2023-04-02T16:16:07.831Z,98706.06
2023-04-02T16:19:15.838Z,98712.38
2023-04-02T16:22:19.407Z,98719.48
2023-04-02T16:25:25.869Z,98725.27
2023-04-02T16:28:32.312Z,98729.02
2023-04-02T16:31:39.915Z,98731.11
2023-04-02T16:34:48.918Z,98737.35
2023-04-02T16:37:53.059Z,98739.21
2023-04-02T16:41:07.885Z,98741.98
2023-04-02T16:44:19.782Z,98749.54
2023-04-02T16:47:30.600Z,98754.06
2023-04-02T16:50:38.932Z,98756.79
2023-04-02T16:53:58.453Z,98760.97
2023-04-02T16:57:18.937Z,98762.65
2023-04-02T17:00:25.030Z,98768.40
2023-04-02T17:04:15.680Z,98772.67
2023-04-02T17:07:17.461Z,98772.48
2023-04-02T17:10:32.956Z,98774.13
2023-04-02T17:13:39.434Z,98778.02
2023-04-02T17:16:42.678Z,98779.06
2023-04-02T17:19:36.787Z,98786.65
2023-04-02T17:22:33.088Z,98790.14
2023-04-02T17:25:31.444Z,98794.34
2023-04-02T17:28:37.113Z,98798.08
2023-04-02T17:31:35.836Z,98800.33
2023-04-02T17:34:31.236Z,98802.88
2023-04-02T17:37:32.426Z,98806.10
2023-04-02T17:40:36.226Z,98810.66
2023-04-02T17:43:44.738Z,98811.12
2023-04-02T17:46:45.328Z,98816.81
2023-04-02T17:49:52.353Z,98820.24
2023-04-02T17:52:53.802Z,98821.17
2023-04-02T17:55:44.831Z,98822.63
2023-04-02T17:58:57.807Z,98825.39
2023-04-02T18:02:03.962Z,98828.66
2023-04-02T18:05:10.215Z,98828.60
2023-04-02T18:08:18.882Z,98832.42
2023-04-02T18:11:26.337Z,98836.89
2023-04-02T18:14:43.454Z,98840.84
2023-04-02T18:17:53.436Z,98844.55
2023-04-02T18:21:01.200Z,98846.10
2023-04-02T18:24:04.557Z,98845.80
2023-04-02T18:27:14.961Z,98852.81
2023-04-02T18:30:01.677Z,98856.99
2023-04-02T18:33:21.454Z,98860.86
2023-04-02T18:36:26.733Z,98865.05
2023-04-02T18:39:34.362Z,98864.83
2023-04-02T18:42:31.287Z,98865.01
2023-04-02T18:45:38.890Z,98868.31
2023-04-02T18:48:48.605Z,98869.41
2023-04-02T18:51:43.310Z,98869.26
2023-04-02T18:54:42.222Z,98872.34
2023-04-02T18:57:42.308Z,98875.64
2023-04-02T19:00:40.257Z,98876.70
2023-04-02T19:03:28.702Z,98882.32
2023-04-02T19:06:28.071Z,98883.70
2023-04-02T19:09:23.715Z,98887.81
2023-04-02T19:12:24.637Z,98891.03
2023-04-02T19:15:23.648Z,98891.98
2023-04-02T19:18:28.117Z,98895.22
2023-04-02T19:21:35.101Z,98898.56
2023-04-02T19:24:36.636Z,98902.79
2023-04-02T19:27:26.804Z,98905.62
2023-04-02T19:30:43.501Z,98907.27
2023-04-02T19:33:50.785Z,98910.66
2023-04-02T19:36:56.317Z,98912.06
2023-04-02T19:40:24.882Z,98908.84
2023-04-02T19:43:20.659Z,98911.70
2023-04-02T19:46:16.224Z,98912.80
2023-04-02T19:49:16.880Z,98913.28
2023-04-02T19:52:06.607Z,98914.13
2023-04-02T19:54:44.046Z,98915.58
2023-04-02T19:57:22.270Z,98918.77
2023-04-02T20:00:21.738Z,98919.15
2023-04-02T20:03:16.730Z,98922.21
2023-04-02T20:06:10.609Z,98925.02
2023-04-02T20:09:04.760Z,98925.10
2023-04-02T20:11:58.434Z,98924.13
2023-04-02T20:14:52.268Z,98927.18
2023-04-02T20:17:46.561Z,98925.96
2023-04-02T20:20:40.548Z,98930.55
2023-04-02T20:23:34.435Z,98930.64
2023-04-02T20:26:29.636Z,98930.66
2023-04-02T20:29:27.730Z,98935.88
2023-04-02T20:32:21.625Z,98936.17
2023-04-02T20:35:15.595Z,98939.41
2023-04-02T20:38:09.272Z,98939.54
2023-04-02T20:41:05.757Z,98942.56
2023-04-02T20:43:59.477Z,98949.13
2023-04-02T20:46:53.095Z,98950.13
2023-04-02T20:49:47.657Z,98957.06
2023-04-02T20:52:41.376Z,98959.31
2023-04-02T20:55:34.997Z,98961.58
2023-04-02T20:58:28.720Z,98963.26
2023-04-02T21:01:25.501Z,98966.42
2023-04-02T21:04:28.327Z,98963.89
2023-04-02T21:07:22.011Z,98969.67
2023-04-02T21:10:16.074Z,98971.14
2023-04-02T21:13:09.864Z,98972.95
2023-04-02T21:16:03.615Z,98972.64
2023-04-02T21:18:59.294Z,98971.73
2023-04-02T21:21:55.215Z,98976.23
2023-04-02T21:24:48.903Z,98976.17
2023-04-02T21:27:42.657Z,98975.34
2023-04-02T21:30:36.350Z,98976.66
2023-04-02T21:33:29.956Z,98978.48
2023-04-02T21:36:26.289Z,98984.40
2023-04-02T21:39:24.348Z,98987.48
2023-04-02T21:42:19.226Z,98987.60
2023-04-02T21:45:18.664Z,98988.42
2023-04-02T21:48:13.042Z,98995.49
2023-04-02T21:51:13.952Z,99001.29
2023-04-02T21:54:08.804Z,99001.84
2023-04-02T21:57:02.657Z,99003.52
2023-04-02T21:59:57.329Z,99011.39
2023-04-02T22:02:51.513Z,99009.88
2023-04-02T22:05:48.623Z,99010.76
2023-04-02T22:08:45.028Z,99015.17
2023-04-02T22:11:42.291Z,99017.78
2023-04-02T22:14:36.415Z,99019.36
2023-04-02T22:17:31.578Z,99024.27
2023-04-02T22:20:26.485Z,99026.85
2023-04-02T22:23:10.091Z,99027.23
2023-04-02T22:26:08.237Z,99030.15
2023-04-02T22:29:03.050Z,99032.75
2023-04-02T22:31:57.165Z,99033.30
2023-04-02T22:34:52.152Z,99037.11
2023-04-02T22:37:45.868Z,99041.81
2023-04-02T22:40:40.944Z,99044.08
2023-04-02T22:43:36.530Z,99045.25
2023-04-02T22:46:31.411Z,99041.74
2023-04-02T22:49:25.621Z,99046.10
2023-04-02T22:52:19.279Z,99044.02
2023-04-02T22:55:16.108Z,99046.27
2023-04-02T22:58:09.994Z,99043.22
2023-04-02T23:01:09.728Z,99046.96
2023-04-02T23:04:05.034Z,99048.59
2023-04-02T23:06:58.688Z,99050.79
2023-04-02T23:09:52.511Z,99052.88
2023-04-02T23:12:46.206Z,99049.06
2023-04-02T23:15:39.989Z,99053.30
2023-04-02T23:18:34.492Z,99051.90
2023-04-02T23:21:28.773Z,99050.48
2023-04-02T23:24:23.043Z,99046.58
2023-04-02T23:27:17.255Z,99051.02
2023-04-02T23:30:12.959Z,99045.69
2023-04-02T23:33:06.999Z,99049.95
2023-04-02T23:36:00.802Z,99049.67
2023-04-02T23:38:56.600Z,99051.23
2023-04-02T23:41:51.479Z,99046.98
2023-04-02T23:44:45.378Z,99052.65
2023-04-02T23:47:39.348Z,99047.27
2023-04-02T23:50:34.736Z,99052.48
2023-04-02T23:53:28.697Z,99054.87
2023-04-02T23:56:22.943Z,99054.96
2023-04-02T23:59:16.502Z,99056.58
